createdAt,value
2023-05-06T00:01:48.647Z,0.20
2023-05-06T00:04:22.192Z,0.22
2023-05-06T00:06:57.256Z,0.82
2023-05-06T00:09:30.729Z,0.57
2023-05-06T00:12:03.368Z,0.35
2023-05-06T00:14:37.313Z,0.17
2023-05-06T00:17:10.662Z,0.22
2023-05-06T00:19:44.908Z,0.35
2023-05-06T00:22:17.590Z,0.60
2023-05-06T00:24:51.004Z,0.30
2023-05-06T00:27:23.451Z,0.47
2023-05-06T00:29:58.649Z,0.32
2023-05-06T00:32:31.312Z,0.25
2023-05-06T00:35:04.534Z,0.20
2023-05-06T00:37:38.914Z,0.10
2023-05-06T00:40:12.146Z,0.43
2023-05-06T00:42:45.376Z,0.30
2023-05-06T00:45:19.586Z,0.20
2023-05-06T00:47:53.150Z,0.10
2023-05-06T00:50:28.483Z,0.50
2023-05-06T00:53:03.681Z,0.40
2023-05-06T00:55:36.441Z,0.08
2023-05-06T00:58:11.053Z,0.60
2023-05-06T01:00:45.022Z,0.00
2023-05-06T01:03:17.895Z,0.10
2023-05-06T01:05:59.386Z,0.40
2023-05-06T01:08:36.618Z,0.40
2023-05-06T01:11:15.623Z,0.30
2023-05-06T01:13:56.508Z,0.00
2023-05-06T01:16:32.621Z,0.20
2023-05-06T01:19:09.138Z,0.57
2023-05-06T01:21:46.243Z,0.10
2023-05-06T01:24:20.087Z,0.20
2023-05-06T01:26:53.311Z,0.13
2023-05-06T01:29:25.782Z,0.28
2023-05-06T01:32:08.723Z,0.10
2023-05-06T01:34:50.027Z,0.00
2023-05-06T01:37:28.538Z,0.45
2023-05-06T01:40:04.390Z,0.00
2023-05-06T01:42:40.378Z,0.20
2023-05-06T01:45:16.396Z,0.08
2023-05-06T01:47:51.138Z,0.03
2023-05-06T01:50:24.090Z,0.28
2023-05-06T01:52:59.010Z,0.27
2023-05-06T01:55:33.241Z,0.05
2023-05-06T01:58:06.068Z,0.00
2023-05-06T02:00:39.810Z,0.10
2023-05-06T02:03:12.615Z,0.22
2023-05-06T02:05:45.499Z,0.10
2023-05-06T02:08:18.527Z,0.10
2023-05-06T02:10:53.393Z,0.15
2023-05-06T02:13:27.749Z,0.13
2023-05-06T02:16:00.785Z,0.20
2023-05-06T02:18:34.428Z,0.00
2023-05-06T02:21:08.626Z,0.15
2023-05-06T02:23:42.024Z,0.20
2023-05-06T02:26:17.064Z,0.43
2023-05-06T02:28:49.749Z,0.00
2023-05-06T02:31:22.496Z,0.07
2023-05-06T02:33:54.965Z,0.17
2023-05-06T02:36:28.138Z,0.00
2023-05-06T02:39:01.140Z,0.50
2023-05-06T02:41:35.410Z,0.20
2023-05-06T02:44:08.154Z,0.20
2023-05-06T02:46:41.389Z,0.10
2023-05-06T02:49:13.817Z,0.32
2023-05-06T02:51:47.513Z,0.15
2023-05-06T02:54:21.206Z,0.82
2023-05-06T02:56:55.187Z,0.20
2023-05-06T02:59:28.021Z,0.30
2023-05-06T03:02:00.888Z,0.15
2023-05-06T03:04:34.073Z,0.47
2023-05-06T03:07:06.959Z,0.05
2023-05-06T03:09:40.223Z,0.10
2023-05-06T03:12:15.290Z,0.10
2023-05-06T03:14:48.771Z,0.17
2023-05-06T03:17:21.990Z,0.15
2023-05-06T03:19:57.077Z,0.22
2023-05-06T03:22:29.765Z,0.40
2023-05-06T03:25:03.697Z,0.43
2023-05-06T03:27:41.379Z,0.00
2023-05-06T03:30:21.589Z,0.00
2023-05-06T03:32:57.639Z,0.08
2023-05-06T03:35:35.739Z,0.10
2023-05-06T03:38:08.972Z,0.35
2023-05-06T03:40:57.831Z,0.10
2023-05-06T03:43:33.009Z,0.28
2023-05-06T03:46:08.663Z,0.10
2023-05-06T03:48:42.478Z,0.00
2023-05-06T03:51:19.642Z,0.00
2023-05-06T03:53:54.188Z,0.22
2023-05-06T03:56:27.952Z,0.10
2023-05-06T03:59:04.220Z,0.13
2023-05-06T04:01:37.600Z,0.00
2023-05-06T04:04:10.673Z,0.28
2023-05-06T04:06:43.984Z,0.15
2023-05-06T04:09:16.970Z,0.00
2023-05-06T04:11:50.331Z,0.00
2023-05-06T04:14:25.928Z,0.00
2023-05-06T04:16:59.784Z,0.03
2023-05-06T04:19:33.712Z,0.10
2023-05-06T04:22:06.930Z,0.00
2023-05-06T04:24:39.352Z,0.00
2023-05-06T04:27:11.969Z,0.10
2023-05-06T04:29:48.679Z,0.10
2023-05-06T04:32:25.651Z,0.10
2023-05-06T04:34:59.917Z,0.00
2023-05-06T04:37:32.891Z,0.00
2023-05-06T04:40:13.969Z,0.00
2023-05-06T04:42:49.238Z,0.10
2023-05-06T04:45:29.944Z,0.10
2023-05-06T04:48:03.229Z,0.20
2023-05-06T04:50:37.490Z,0.20
2023-05-06T04:53:11.447Z,0.20
2023-05-06T04:55:44.066Z,0.57
2023-05-06T04:58:17.197Z,0.00
2023-05-06T05:00:52.524Z,0.00
2023-05-06T05:03:26.108Z,0.10
2023-05-06T05:06:02.103Z,0.30
2023-05-06T05:08:34.850Z,0.10
2023-05-06T05:11:08.017Z,0.10
2023-05-06T05:13:41.025Z,0.17
2023-05-06T05:16:15.665Z,0.10
2023-05-06T05:18:49.491Z,0.10
2023-05-06T05:21:28.160Z,0.17
2023-05-06T05:24:02.418Z,0.10
2023-05-06T05:26:35.912Z,0.20
2023-05-06T05:29:08.964Z,0.10
2023-05-06T05:31:44.878Z,0.10
2023-05-06T05:34:18.439Z,0.10
2023-05-06T05:36:51.923Z,0.20
2023-05-06T05:39:24.769Z,0.00
2023-05-06T05:41:58.692Z,0.10
2023-05-06T05:44:31.542Z,0.30
2023-05-06T05:47:07.070Z,0.20
2023-05-06T05:49:41.457Z,0.28
2023-05-06T05:52:15.945Z,0.10
2023-05-06T05:54:49.638Z,0.10
2023-05-06T05:57:22.486Z,0.30
2023-05-06T05:59:56.023Z,0.03
2023-05-06T06:02:30.093Z,0.25
2023-05-06T06:05:03.514Z,0.15
2023-05-06T06:07:36.922Z,0.20
2023-05-06T06:10:10.404Z,0.10
2023-05-06T06:12:44.804Z,0.00
2023-05-06T06:15:22.938Z,0.08
2023-05-06T06:17:59.443Z,0.00
2023-05-06T06:20:35.686Z,0.10
2023-05-06T06:23:08.249Z,0.20
2023-05-06T06:25:41.347Z,0.20
2023-05-06T06:28:14.452Z,0.10
2023-05-06T06:30:48.111Z,0.32
2023-05-06T06:33:21.957Z,0.10
2023-05-06T06:35:55.236Z,0.10
2023-05-06T06:38:27.883Z,0.10
2023-05-06T06:41:01.017Z,0.00
2023-05-06T06:43:33.806Z,0.10
2023-05-06T06:46:12.628Z,0.22
2023-05-06T06:48:46.852Z,0.17
2023-05-06T06:51:20.039Z,0.40
2023-05-06T06:53:52.575Z,0.10
2023-05-06T06:56:25.961Z,0.10
2023-05-06T06:58:58.496Z,0.10
2023-05-06T07:01:31.507Z,0.00
2023-05-06T07:04:07.258Z,0.28
2023-05-06T07:06:40.653Z,0.10
2023-05-06T07:09:13.555Z,0.10
2023-05-06T07:11:46.748Z,0.20
2023-05-06T07:14:20.422Z,0.00
2023-05-06T07:16:53.807Z,0.10
2023-05-06T07:19:27.828Z,0.57
2023-05-06T07:22:01.281Z,0.00
2023-05-06T07:24:34.167Z,0.10
2023-05-06T07:27:06.709Z,0.13
2023-05-06T07:29:39.188Z,0.10
2023-05-06T07:32:12.318Z,0.13
2023-05-06T07:34:46.535Z,0.03
2023-05-06T07:37:19.367Z,0.10
2023-05-06T07:39:52.492Z,0.20
2023-05-06T07:42:25.599Z,0.90
2023-05-06T07:44:58.618Z,0.15
2023-05-06T07:47:32.588Z,0.05
2023-05-06T07:50:08.305Z,0.10
2023-05-06T07:52:40.924Z,0.47
2023-05-06T07:55:13.945Z,0.05
2023-05-06T07:57:46.717Z,0.75
2023-05-06T08:00:19.945Z,0.15
2023-05-06T08:02:52.565Z,0.10
2023-05-06T08:05:26.987Z,0.10
2023-05-06T08:08:00.514Z,0.20
2023-05-06T08:10:33.917Z,0.10
2023-05-06T08:13:06.526Z,0.10
2023-05-06T08:15:39.964Z,0.00
2023-05-06T08:18:21.483Z,0.10
2023-05-06T08:20:56.447Z,0.05
2023-05-06T08:23:29.651Z,0.08
2023-05-06T08:26:02.218Z,0.00
2023-05-06T08:28:35.059Z,0.00
2023-05-06T08:31:07.776Z,0.30
2023-05-06T08:33:41.042Z,0.10
2023-05-06T08:36:15.129Z,0.40
2023-05-06T08:38:51.293Z,0.10
2023-05-06T08:41:26.452Z,0.00
2023-05-06T08:44:02.485Z,0.10
2023-05-06T08:46:35.489Z,0.20
2023-05-06T08:49:08.849Z,0.35
2023-05-06T08:51:52.737Z,0.10
2023-05-06T08:54:29.193Z,0.15
2023-05-06T08:57:10.265Z,0.10
2023-05-06T08:59:45.877Z,0.10
2023-05-06T09:02:18.838Z,0.10
2023-05-06T09:04:53.116Z,0.10
2023-05-06T09:07:30.134Z,0.20
2023-05-06T09:10:06.753Z,0.10
2023-05-06T09:12:43.417Z,0.10
2023-05-06T09:15:16.953Z,0.00
2023-05-06T09:17:52.073Z,0.08
2023-05-06T09:20:25.027Z,0.00
2023-05-06T09:23:00.428Z,0.00
2023-05-06T09:25:33.661Z,0.10
2023-05-06T09:28:07.745Z,0.45
2023-05-06T09:30:41.773Z,0.00
2023-05-06T09:33:16.247Z,0.50
2023-05-06T09:35:50.426Z,0.10
2023-05-06T09:38:24.395Z,0.10
2023-05-06T09:41:00.535Z,0.10
2023-05-06T09:43:33.396Z,0.20
2023-05-06T09:46:06.681Z,0.15
2023-05-06T09:48:39.876Z,0.40
2023-05-06T09:51:13.420Z,0.00
2023-05-06T09:53:51.040Z,0.10
2023-05-06T09:56:25.170Z,0.10
2023-05-06T09:59:01.531Z,0.10
2023-05-06T10:01:37.671Z,0.10
2023-05-06T10:04:21.756Z,0.00
2023-05-06T10:07:00.949Z,0.20
2023-05-06T10:09:39.930Z,0.10
2023-05-06T10:12:14.205Z,0.10
2023-05-06T10:14:49.612Z,0.27
2023-05-06T10:17:26.234Z,0.10
2023-05-06T10:20:00.885Z,0.10
2023-05-06T10:22:47.406Z,0.63
2023-05-06T10:25:30.619Z,0.10
2023-05-06T10:28:09.664Z,0.10
2023-05-06T10:30:47.813Z,0.28
2023-05-06T10:33:25.312Z,0.20
2023-05-06T10:36:08.076Z,0.10
2023-05-06T10:38:43.672Z,0.15
2023-05-06T10:41:19.078Z,0.30
2023-05-06T10:43:57.079Z,0.10
2023-05-06T10:46:31.069Z,0.10
2023-05-06T10:49:17.497Z,0.10
2023-05-06T10:52:14.029Z,0.10
2023-05-06T10:54:51.539Z,0.20
2023-05-06T10:57:41.456Z,0.08
2023-05-06T11:00:15.392Z,0.25
2023-05-06T11:02:55.294Z,0.08
2023-05-06T11:05:27.897Z,0.17
2023-05-06T11:08:11.293Z,0.20
2023-05-06T11:10:44.261Z,0.15
2023-05-06T11:13:26.987Z,0.20
2023-05-06T11:16:00.360Z,0.10
2023-05-06T11:18:44.392Z,0.20
2023-05-06T11:21:42.070Z,0.10
2023-05-06T11:24:26.388Z,0.08
2023-05-06T11:27:00.640Z,0.30
2023-05-06T11:29:38.444Z,0.10
2023-05-06T11:32:22.589Z,0.10
2023-05-06T11:34:56.031Z,0.00
2023-05-06T11:37:30.234Z,0.10
2023-05-06T11:40:03.510Z,0.20
2023-05-06T11:42:36.657Z,0.10
2023-05-06T11:45:13.465Z,0.10
2023-05-06T11:47:52.794Z,0.10
2023-05-06T11:50:25.984Z,0.10
2023-05-06T11:52:59.219Z,0.10
2023-05-06T11:55:31.890Z,0.20
2023-05-06T11:58:07.608Z,0.10
2023-05-06T12:00:50.936Z,0.30
2023-05-06T12:03:25.901Z,0.20
2023-05-06T12:06:01.859Z,0.10
2023-05-06T12:08:37.990Z,0.08
2023-05-06T12:11:13.613Z,0.20
2023-05-06T12:13:49.508Z,0.10
2023-05-06T12:16:25.764Z,0.10
2023-05-06T12:19:00.227Z,0.10
2023-05-06T12:21:38.599Z,0.20
2023-05-06T12:24:12.934Z,0.20
2023-05-06T12:26:46.867Z,0.10
2023-05-06T12:29:23.006Z,0.10
2023-05-06T12:32:09.767Z,0.22
2023-05-06T12:34:42.993Z,0.10
2023-05-06T12:37:25.470Z,0.17
2023-05-06T12:40:02.419Z,0.20
2023-05-06T12:42:36.256Z,0.10
2023-05-06T12:45:18.335Z,0.10
2023-05-06T12:47:57.334Z,0.10
2023-05-06T12:50:40.992Z,0.10
2023-05-06T12:53:13.824Z,0.10
2023-05-06T12:55:46.551Z,0.10
2023-05-06T12:58:23.146Z,0.00
2023-05-06T13:00:58.814Z,0.00
2023-05-06T13:03:33.367Z,0.20
2023-05-06T13:06:06.855Z,0.20
2023-05-06T13:08:42.645Z,0.10
2023-05-06T13:11:16.011Z,0.10
2023-05-06T13:13:48.705Z,0.20
2023-05-06T13:16:21.916Z,1.45
2023-05-06T13:19:03.340Z,0.10
2023-05-06T13:21:42.996Z,0.10
2023-05-06T13:24:17.803Z,0.30
2023-05-06T13:26:51.836Z,0.20
2023-05-06T13:29:24.700Z,0.00
2023-05-06T13:32:01.213Z,0.03
2023-05-06T13:34:40.817Z,0.20
2023-05-06T13:37:15.025Z,0.10
2023-05-06T13:39:47.530Z,0.32
2023-05-06T13:42:20.627Z,0.10
2023-05-06T13:44:53.441Z,0.17
2023-05-06T13:47:27.076Z,0.10
2023-05-06T13:50:03.778Z,0.00
2023-05-06T13:52:37.158Z,0.40
2023-05-06T13:55:10.718Z,0.10
2023-05-06T13:57:43.521Z,0.10
2023-05-06T14:00:17.359Z,0.30
2023-05-06T14:02:50.035Z,0.20
2023-05-06T14:05:27.233Z,0.35
2023-05-06T14:07:59.926Z,0.22
2023-05-06T14:10:34.355Z,0.67
2023-05-06T14:13:07.428Z,0.10
2023-05-06T14:15:43.363Z,0.13
2023-05-06T14:18:16.204Z,0.10
2023-05-06T14:20:51.804Z,0.10
2023-05-06T14:23:24.751Z,0.20
2023-05-06T14:26:03.895Z,0.10
2023-05-06T14:28:37.599Z,0.52
2023-05-06T14:31:10.721Z,0.17
2023-05-06T14:34:03.441Z,0.28
2023-05-06T14:36:38.529Z,0.20
2023-05-06T14:39:11.050Z,0.20
2023-05-06T14:41:43.797Z,0.08
2023-05-06T14:44:16.359Z,0.20
2023-05-06T14:46:49.750Z,0.10
2023-05-06T14:49:23.043Z,0.43
2023-05-06T14:51:57.659Z,0.20
2023-05-06T14:54:31.326Z,0.10
2023-05-06T14:57:03.743Z,0.30
2023-05-06T14:59:37.288Z,0.17
2023-05-06T15:02:10.441Z,0.20
2023-05-06T15:04:43.617Z,0.28
2023-05-06T15:07:17.526Z,0.40
2023-05-06T15:10:02.899Z,0.35
2023-05-06T15:12:40.978Z,0.22
2023-05-06T15:15:14.283Z,0.47
2023-05-06T15:17:47.043Z,0.40
2023-05-06T15:20:20.362Z,0.57
2023-05-06T15:22:58.527Z,0.70
2023-05-06T15:25:36.269Z,0.15
2023-05-06T15:28:09.309Z,0.30
2023-05-06T15:30:41.874Z,0.20
2023-05-06T15:33:14.724Z,0.30
2023-05-06T15:35:48.326Z,0.47
2023-05-06T15:38:22.435Z,0.20
2023-05-06T15:40:58.537Z,0.40
2023-05-06T15:43:37.965Z,0.20
2023-05-06T15:46:12.054Z,0.50
2023-05-06T15:48:45.719Z,0.25
2023-05-06T15:51:18.691Z,0.10
2023-05-06T15:53:53.271Z,0.10
2023-05-06T15:56:27.007Z,0.10
2023-05-06T15:59:00.030Z,0.25
2023-05-06T16:04:08.966Z,0.10
2023-05-06T16:06:42.270Z,0.10
2023-05-06T16:09:16.218Z,0.10
2023-05-06T16:11:49.776Z,0.20
2023-05-06T16:14:22.300Z,0.47
2023-05-06T16:16:54.895Z,0.40
2023-05-06T16:19:27.784Z,0.30
2023-05-06T16:22:01.224Z,0.08
2023-05-06T16:24:35.093Z,0.20
2023-05-06T16:27:07.966Z,0.95
2023-05-06T16:29:40.770Z,0.20
2023-05-06T16:32:13.996Z,0.17
2023-05-06T16:34:49.629Z,0.43
2023-05-06T16:37:22.728Z,0.20
2023-05-06T16:39:56.952Z,0.38
2023-05-06T16:42:29.875Z,0.75
2023-05-06T16:45:02.392Z,0.10
2023-05-06T16:47:39.051Z,0.10
2023-05-06T16:50:43.534Z,0.20
2023-05-06T16:53:17.618Z,0.15
2023-05-06T16:55:54.210Z,0.20
2023-05-06T16:58:26.709Z,0.10
2023-05-06T17:01:00.059Z,0.22
2023-05-06T17:03:32.658Z,0.10
2023-05-06T17:06:06.201Z,0.10
2023-05-06T17:08:38.774Z,0.10
2023-05-06T17:11:13.278Z,0.83
2023-05-06T17:13:45.985Z,0.17
2023-05-06T17:16:19.761Z,0.63
2023-05-06T17:18:52.340Z,0.13
2023-05-06T17:21:25.577Z,0.45
2023-05-06T17:23:58.389Z,0.30
2023-05-06T17:26:34.086Z,0.22
2023-05-06T17:29:07.569Z,0.20
2023-05-06T17:31:40.796Z,0.10
2023-05-06T17:34:13.663Z,0.70
2023-05-06T17:36:46.780Z,0.10
2023-05-06T17:39:19.509Z,0.28
2023-05-06T17:41:53.893Z,0.22
2023-05-06T17:44:26.648Z,0.17
2023-05-06T17:46:59.972Z,0.35
2023-05-06T17:49:35.659Z,0.10
2023-05-06T17:52:08.889Z,0.10
2023-05-06T17:54:41.918Z,0.55
2023-05-06T17:57:16.370Z,0.50
2023-05-06T17:59:49.203Z,0.22
2023-05-06T18:02:22.392Z,0.87
2023-05-06T18:04:56.444Z,0.20
2023-05-06T18:07:29.933Z,0.60
2023-05-06T18:10:04.303Z,0.73
2023-05-06T18:12:39.850Z,1.13
2023-05-06T18:15:12.859Z,1.60
2023-05-06T18:17:49.590Z,1.05
2023-05-06T18:20:24.657Z,1.88
2023-05-06T18:22:59.325Z,0.80
2023-05-06T18:25:32.207Z,1.27
2023-05-06T18:28:10.138Z,0.37
2023-05-06T18:30:42.822Z,0.35
2023-05-06T18:33:16.540Z,0.73
2023-05-06T18:35:51.131Z,0.32
2023-05-06T18:38:26.998Z,1.33
2023-05-06T18:41:01.651Z,1.20
2023-05-06T18:43:36.416Z,0.45
2023-05-06T18:46:10.641Z,1.05
2023-05-06T18:48:43.854Z,1.30
2023-05-06T18:51:17.448Z,0.95
2023-05-06T18:53:50.688Z,1.23
2023-05-06T18:56:28.214Z,0.50
2023-05-06T18:59:02.725Z,0.43
2023-05-06T19:01:35.674Z,0.22
2023-05-06T19:04:09.257Z,0.70
2023-05-06T19:06:44.900Z,0.87
2023-05-06T19:09:20.950Z,0.43
2023-05-06T19:11:53.852Z,1.20
2023-05-06T19:14:28.359Z,1.67
2023-05-06T19:17:01.566Z,0.90
2023-05-06T19:19:37.742Z,0.40
2023-05-06T19:22:12.126Z,1.30
2023-05-06T19:24:45.165Z,1.13
2023-05-06T19:27:18.031Z,1.45
2023-05-06T19:29:52.935Z,1.35
2023-05-06T19:32:25.501Z,1.10
2023-05-06T19:34:59.273Z,1.50
2023-05-06T19:37:32.605Z,2.88
2023-05-06T19:40:08.182Z,2.38
2023-05-06T19:42:41.501Z,4.20
2023-05-06T19:45:18.302Z,2.33
2023-05-06T19:47:51.798Z,3.00
2023-05-06T19:50:25.178Z,1.60
2023-05-06T19:52:58.716Z,1.65
2023-05-06T19:55:35.075Z,1.77
2023-05-06T19:58:08.371Z,1.40
2023-05-06T20:00:45.553Z,1.50
2023-05-06T20:03:19.421Z,1.38
2023-05-06T20:05:52.699Z,2.88
2023-05-06T20:08:26.270Z,2.35
2023-05-06T20:10:59.450Z,3.23
2023-05-06T20:13:32.303Z,2.67
2023-05-06T20:16:07.393Z,2.35
2023-05-06T20:18:43.625Z,2.13
2023-05-06T20:21:17.199Z,1.77
2023-05-06T20:23:49.750Z,2.27
2023-05-06T20:26:24.500Z,3.38
2023-05-06T20:28:57.685Z,1.40
2023-05-06T20:31:32.391Z,2.20
2023-05-06T20:34:04.910Z,1.83
2023-05-06T20:36:38.055Z,2.27
2023-05-06T20:39:13.274Z,2.58
2023-05-06T20:41:46.473Z,4.32
2023-05-06T20:44:19.316Z,4.30
2023-05-06T20:46:53.889Z,2.35
2023-05-06T20:49:26.701Z,3.60
2023-05-06T20:52:06.518Z,2.55
2023-05-06T20:54:39.835Z,2.30
2023-05-06T20:57:15.420Z,2.38
2023-05-06T20:59:51.305Z,3.35
2023-05-06T21:05:24.102Z,2.67
2023-05-06T21:07:56.800Z,2.50
2023-05-06T21:10:29.854Z,3.35
2023-05-06T21:13:03.031Z,2.67
2023-05-06T21:15:35.711Z,3.37
2023-05-06T21:18:10.372Z,3.03
2023-05-06T21:20:43.475Z,2.05
2023-05-06T21:23:16.459Z,2.10
2023-05-06T21:25:49.686Z,0.95
2023-05-06T21:28:22.637Z,3.20
2023-05-06T21:30:55.252Z,1.52
2023-05-06T21:33:29.241Z,2.63
2023-05-06T21:36:02.096Z,1.55
2023-05-06T21:38:35.361Z,2.28
2023-05-06T21:41:07.856Z,2.43
2023-05-06T21:43:42.495Z,3.03
2023-05-06T21:46:15.116Z,1.77
2023-05-06T21:48:49.759Z,2.05
2023-05-06T21:51:22.900Z,1.33
2023-05-06T21:53:55.694Z,1.97
2023-05-06T21:56:29.013Z,1.33
2023-05-06T21:59:01.687Z,1.58
2023-05-06T22:01:36.400Z,1.17
2023-05-06T22:04:13.405Z,1.63
2023-05-06T22:06:49.477Z,1.73
2023-05-06T22:09:22.082Z,2.58
2023-05-06T22:11:55.252Z,1.67
2023-05-06T22:14:37.219Z,1.48
2023-05-06T22:17:13.296Z,1.13
2023-05-06T22:19:47.318Z,1.60
2023-05-06T22:22:20.385Z,2.08
2023-05-06T22:24:53.276Z,0.90
2023-05-06T22:27:26.663Z,2.22
2023-05-06T22:29:59.856Z,0.88
2023-05-06T22:32:32.316Z,0.97
2023-05-06T22:35:08.903Z,1.45
2023-05-06T22:37:42.327Z,0.70
2023-05-06T22:40:15.875Z,1.13
2023-05-06T22:42:48.456Z,0.88
2023-05-06T22:45:21.534Z,1.50
2023-05-06T22:47:54.533Z,0.50
2023-05-06T22:50:29.291Z,0.55
2023-05-06T22:53:10.289Z,1.45
2023-05-06T22:55:47.249Z,1.80
2023-05-06T22:58:19.999Z,1.43
2023-05-06T23:00:53.315Z,1.02
2023-05-06T23:03:26.469Z,0.60
2023-05-06T23:06:00.889Z,0.98
2023-05-06T23:08:34.098Z,0.73
2023-05-06T23:11:06.835Z,0.83
2023-05-06T23:13:40.115Z,0.95
2023-05-06T23:16:12.773Z,1.48
2023-05-06T23:18:46.718Z,0.70
2023-05-06T23:21:20.832Z,0.85
2023-05-06T23:23:53.837Z,0.60
2023-05-06T23:26:26.825Z,0.68
2023-05-06T23:29:00.006Z,2.03
2023-05-06T23:31:32.505Z,1.50
2023-05-06T23:34:05.110Z,1.05
2023-05-06T23:36:39.402Z,0.43
2023-05-06T23:39:12.615Z,1.10
2023-05-06T23:41:45.318Z,0.80
2023-05-06T23:44:19.163Z,0.40
2023-05-06T23:46:51.893Z,1.35
2023-05-06T23:49:24.986Z,1.17
2023-05-06T23:51:58.887Z,1.50
2023-05-06T23:54:31.723Z,0.68
2023-05-06T23:57:04.389Z,0.82
2023-05-06T23:59:37.322Z,1.58
